Ashton-under-Lyne, United Kingdom
Current Conditions -  °F | °C
As of 5:20 PM on Thursday 18 Dec 2014 (Local Time) from EGCC Reporting Station
Light Rain Light Rain  
Wind Chill: 12°   Ceiling: 1700
Heat Index: 12°   Visibility: 6mi
Dew Point: 10°   Wind: 16mph
Humidity: 88%   Direction: 220°SW
Pressure: 29.62"   Gusts: NA
Location:  53.49°N, 2.1°W
Report Text: EGCC 181720Z 22014KT 9999 -RA BKN017 BKN025 BKN030 12/10 Q1003
Loading
Personal Weather Stations






























Interactive Weather Map New forecast layout! Learn more

10-Day Weather Forecast

Advertisements
Track Severe Weather on mobile